createdAt,value
2023-05-30T00:00:02.064Z,14.81
2023-05-30T00:07:02.005Z,14.61
2023-05-30T00:14:01.937Z,14.61
2023-05-30T00:21:02.113Z,14.38
2023-05-30T00:28:01.727Z,14.38
2023-05-30T00:35:04.603Z,14.29
2023-05-30T00:42:01.293Z,14.18
2023-05-30T00:49:02.213Z,14.18
2023-05-30T00:56:01.570Z,14
2023-05-30T01:00:02.218Z,14
2023-05-30T01:07:02.062Z,14
2023-05-30T01:14:02.145Z,13.9
2023-05-30T01:21:01.547Z,13.64
2023-05-30T01:28:02.047Z,13.64
2023-05-30T01:35:02.521Z,13.48
2023-05-30T01:42:02.120Z,13.48
2023-05-30T01:49:01.517Z,13.36
2023-05-30T01:56:02.270Z,13.36
2023-05-30T02:00:01.813Z,13.17
2023-05-30T02:07:01.333Z,13.17
2023-05-30T02:14:01.620Z,12.91
2023-05-30T02:21:02.065Z,12.91
2023-05-30T02:28:02.020Z,12.87
2023-05-30T02:35:01.965Z,12.87
2023-05-30T02:42:01.927Z,12.67
2023-05-30T02:49:01.598Z,12.67
2023-05-30T02:56:02.104Z,12.35
2023-05-30T03:00:01.731Z,12.35
2023-05-30T03:07:01.993Z,12.26
2023-05-30T03:14:01.578Z,12.26
2023-05-30T03:21:02.105Z,11.92
2023-05-30T03:28:02.180Z,11.92
2023-05-30T03:35:01.632Z,12.03
2023-05-30T03:42:01.731Z,11.36
2023-05-30T03:49:01.669Z,11.36
2023-05-30T03:56:01.946Z,11.72
2023-05-30T04:00:02.499Z,11.72
2023-05-30T04:07:01.708Z,11.72
2023-05-30T04:14:01.756Z,11.62
2023-05-30T04:21:02.071Z,11.34
2023-05-30T04:28:01.643Z,11.34
2023-05-30T04:35:02.092Z,11.42
2023-05-30T04:42:01.708Z,11.42
2023-05-30T04:49:03.168Z,11.49
2023-05-30T04:56:02.235Z,11.49
2023-05-30T05:00:01.871Z,11.51
2023-05-30T05:07:01.741Z,11.51
2023-05-30T05:14:02.115Z,11.25
2023-05-30T05:21:02.348Z,11.25
2023-05-30T05:28:02.102Z,11.37
2023-05-30T05:35:02.451Z,11.37
2023-05-30T05:42:01.949Z,11.4
2023-05-30T05:49:01.996Z,11.4
2023-05-30T05:56:01.329Z,11.71
2023-05-30T06:00:01.843Z,11.71
2023-05-30T06:07:02.200Z,11.72
2023-05-30T06:14:01.412Z,11.72
2023-05-30T06:21:02.148Z,11.83
2023-05-30T06:28:02.004Z,11.83
2023-05-30T06:35:02.023Z,11.97
2023-05-30T06:42:01.513Z,12.17
2023-05-30T06:49:02.018Z,12.17
2023-05-30T06:56:01.969Z,12.28
2023-05-30T07:00:01.523Z,12.28
2023-05-30T07:07:01.900Z,12.28
2023-05-30T07:14:01.315Z,12.44
2023-05-30T07:21:01.917Z,12.66
2023-05-30T07:28:02.255Z,12.66
2023-05-30T07:35:02.601Z,12.72
2023-05-30T07:42:01.917Z,12.72
2023-05-30T07:49:01.409Z,12.81
2023-05-30T07:56:02.081Z,12.81
2023-05-30T08:00:01.645Z,12.97
2023-05-30T08:07:02.027Z,12.97
2023-05-30T08:14:01.684Z,13.21
2023-05-30T08:21:01.886Z,13.21
2023-05-30T08:28:01.892Z,13.37
2023-05-30T08:35:02.102Z,13.37
2023-05-30T08:42:01.793Z,13.46
2023-05-30T08:49:01.701Z,13.46
2023-05-30T08:56:01.922Z,13.84
2023-05-30T09:00:02.555Z,13.84
2023-05-30T09:07:01.685Z,13.98
2023-05-30T09:14:01.589Z,13.98
2023-05-30T09:21:02.579Z,14.25
2023-05-30T09:28:01.370Z,14.25
2023-05-30T09:35:01.821Z,14.4
2023-05-30T09:42:01.552Z,14.64
2023-05-30T09:49:01.704Z,14.64
2023-05-30T09:56:01.807Z,14.85
2023-05-30T10:00:02.487Z,14.85
2023-05-30T10:07:02.202Z,14.85
2023-05-30T10:14:02.361Z,15.05
2023-05-30T10:21:02.155Z,15.26
2023-05-30T10:28:02.235Z,15.26
2023-05-30T10:35:01.588Z,15.52
2023-05-30T10:42:02.001Z,15.52
2023-05-30T10:49:01.407Z,15.71
2023-05-30T10:56:02.220Z,15.71
2023-05-30T11:00:01.993Z,15.85
2023-05-30T11:07:02.031Z,15.85
2023-05-30T11:14:01.738Z,15.95
2023-05-30T11:21:01.834Z,15.95
2023-05-30T11:28:01.451Z,16.06
2023-05-30T11:35:04.728Z,16.06
2023-05-30T11:42:01.524Z,16.11
2023-05-30T11:49:01.960Z,16.11
2023-05-30T11:56:02.202Z,16.18
2023-05-30T12:00:01.789Z,16.18
2023-05-30T12:07:02.190Z,16.21
2023-05-30T12:14:02.188Z,16.21
2023-05-30T12:21:02.082Z,16.59
2023-05-30T12:28:01.499Z,16.59
2023-05-30T12:35:02.572Z,16.68
2023-05-30T12:42:02.041Z,16.88
2023-05-30T12:49:01.979Z,16.88
2023-05-30T12:56:01.584Z,17.08
2023-05-30T13:00:02.131Z,17.08
2023-05-30T13:07:02.233Z,17.08
2023-05-30T13:14:01.622Z,17.2
2023-05-30T13:21:02.231Z,17.36
2023-05-30T13:28:01.467Z,17.36
2023-05-30T13:35:01.576Z,17.53
2023-05-30T13:42:02.275Z,17.53
2023-05-30T13:49:01.475Z,17.66
2023-05-30T13:56:01.879Z,17.66
2023-05-30T14:00:02.446Z,17.84
2023-05-30T14:07:01.402Z,17.84
2023-05-30T14:14:02.137Z,17.91
2023-05-30T14:21:02.359Z,17.91
2023-05-30T14:28:02.041Z,18.01
2023-05-30T14:35:01.737Z,18.01
2023-05-30T14:42:01.995Z,18.2
2023-05-30T14:49:01.549Z,18.2
2023-05-30T14:56:01.958Z,18.24
2023-05-30T15:00:01.760Z,18.24
2023-05-30T15:07:01.977Z,18.33
2023-05-30T15:14:01.323Z,18.33
2023-05-30T15:21:01.991Z,18.31
2023-05-30T15:28:01.906Z,18.31
2023-05-30T15:35:02.132Z,18.45
2023-05-30T15:42:01.850Z,18.6
2023-05-30T15:49:01.435Z,18.6
2023-05-30T15:56:01.870Z,18.53
2023-05-30T16:00:02.459Z,18.53
2023-05-30T16:07:02.070Z,18.53
2023-05-30T16:14:01.368Z,18.68
2023-05-30T16:21:02.387Z,18.78
2023-05-30T16:28:01.613Z,18.78
2023-05-30T16:35:02.173Z,18.81
2023-05-30T16:42:01.918Z,18.81
2023-05-30T16:49:01.324Z,18.81
2023-05-30T16:56:01.833Z,18.81
2023-05-30T17:00:02.500Z,18.86
2023-05-30T17:07:01.989Z,18.86
2023-05-30T17:14:01.634Z,18.84
2023-05-30T17:21:02.492Z,18.84
2023-05-30T17:28:01.547Z,18.96
2023-05-30T17:35:02.495Z,18.96
2023-05-30T17:42:01.881Z,18.91
2023-05-30T17:49:01.840Z,18.91
2023-05-30T17:56:01.768Z,18.91
2023-05-30T18:00:02.556Z,18.91
2023-05-30T18:07:02.193Z,18.83
2023-05-30T18:14:01.854Z,18.83
2023-05-30T18:21:01.962Z,18.82
2023-05-30T18:28:01.878Z,18.82
2023-05-30T18:35:01.642Z,18.74
2023-05-30T18:42:01.698Z,18.62
2023-05-30T18:49:02.252Z,18.62
2023-05-30T18:56:01.790Z,18.51
2023-05-30T19:00:02.694Z,18.51
2023-05-30T19:07:02.117Z,18.51
2023-05-30T19:14:01.802Z,18.29
2023-05-30T19:21:01.487Z,18.1
2023-05-30T19:28:01.398Z,18.1
2023-05-30T19:35:01.698Z,17.96
2023-05-30T19:42:01.654Z,17.96
2023-05-30T19:49:01.509Z,17.68
2023-05-30T19:56:01.748Z,17.68
2023-05-30T20:00:02.319Z,17.4
2023-05-30T20:07:01.854Z,17.4
2023-05-30T20:14:01.667Z,17.26
2023-05-30T20:21:01.738Z,17.26
2023-05-30T20:28:03.678Z,17.02
2023-05-30T20:35:02.278Z,17.02
2023-05-30T20:42:01.650Z,16.78
2023-05-30T20:49:02.207Z,16.78
2023-05-30T20:56:01.671Z,16.6
2023-05-30T21:00:02.207Z,16.6
2023-05-30T21:07:01.851Z,16.49
2023-05-30T21:14:01.959Z,16.49
2023-05-30T21:21:02.045Z,16.16
2023-05-30T21:28:02.090Z,16.16
2023-05-30T21:35:02.594Z,16.01
2023-05-30T21:42:01.989Z,15.68
2023-05-30T21:49:02.320Z,15.68
2023-05-30T21:56:02.009Z,15.86
2023-05-30T22:00:01.644Z,15.86
2023-05-30T22:07:01.408Z,15.86
2023-05-30T22:14:01.781Z,15.59
2023-05-30T22:21:01.862Z,15.67
2023-05-30T22:28:02.008Z,15.67
2023-05-30T22:35:01.767Z,15.56
2023-05-30T22:42:01.675Z,15.56
2023-05-30T22:49:01.457Z,15.5
2023-05-30T22:56:02.131Z,15.5
2023-05-30T23:00:01.779Z,15.49
2023-05-30T23:07:01.526Z,15.49
2023-05-30T23:14:02.020Z,15.29
2023-05-30T23:21:02.066Z,15.29
2023-05-30T23:28:02.128Z,15.36
2023-05-30T23:35:01.851Z,15.36
2023-05-30T23:42:02.149Z,15.22
2023-05-30T23:49:01.536Z,15.22
2023-05-30T23:56:01.587Z,15.24
